Time;durP1;ratioP1;P1;durP2;ratioP2;P2;SDS_P1;SDS_P2;PMS_P1;PMS_P2;Temp;Humidity;BMP_temperature;BMP_pressure;BME280_temperature;BME280_humidity;BME280_pressure;Samples;Min_cycle;Max_cycle;Signal;HPM_P1;HPM_P2
2022/06/07 00:01:04;;;;;;;14.60;6.90;;;;;;;13.50;76.20;99739.92;108874;1278;22454;-63
2022/06/07 00:03:30;;;;;;;11.30;7.10;;;;;;;13.49;76.40;99736.80;108857;1277;139221;-63
2022/06/07 00:05:57;;;;;;;12.60;7.20;;;;;;;13.49;76.51;99735.42;108928;1280;22453;-63
2022/06/07 00:08:24;;;;;;;11.60;6.90;;;;;;;13.45;76.65;99737.45;108768;1280;22535;-63
2022/06/07 00:10:51;;;;;;;13.60;7.50;;;;;;;13.43;76.64;99737.33;108706;1279;139953;-63
2022/06/07 00:13:18;;;;;;;14.70;7.50;;;;;;;13.41;76.74;99735.77;108877;1279;22596;-63
2022/06/07 00:15:45;;;;;;;18.50;7.50;;;;;;;13.40;76.90;99733.90;108775;1279;139711;-63
2022/06/07 00:18:12;;;;;;;13.80;7.10;;;;;;;13.38;76.89;99738.23;108917;1277;22609;-63
2022/06/07 00:20:39;;;;;;;10.10;6.50;;;;;;;13.36;76.97;99733.50;108944;1278;22519;-63
2022/06/07 00:23:08;;;;;;;11.60;7.60;;;;;;;13.34;77.18;99729.61;108846;1279;139306;-63
2022/06/07 00:25:34;;;;;;;15.90;7.70;;;;;;;13.33;77.12;99727.91;108944;1278;22496;-63
2022/06/07 00:28:01;;;;;;;13.20;7.30;;;;;;;13.30;76.97;99728.11;108813;1279;138279;-62
2022/06/07 00:30:29;;;;;;;13.50;7.10;;;;;;;13.29;77.00;99728.98;108722;1279;22478;-63
2022/06/07 00:32:55;;;;;;;11.00;6.70;;;;;;;13.28;77.21;99728.98;108731;1277;139803;-63
2022/06/07 00:35:22;;;;;;;13.50;7.20;;;;;;;13.26;77.16;99728.67;108922;1278;23595;-62
2022/06/07 00:37:49;;;;;;;10.30;6.70;;;;;;;13.23;77.28;99728.72;108998;1277;22566;-63
2022/06/07 00:40:16;;;;;;;14.80;7.10;;;;;;;13.22;77.20;99727.89;108647;1280;138359;-63
2022/06/07 00:42:43;;;;;;;14.10;8.10;;;;;;;13.21;77.26;99731.01;108708;1279;22467;-62
2022/06/07 00:45:14;;;;;;;11.50;7.30;;;;;;;13.19;77.46;99732.25;108900;1278;138594;-63
2022/06/07 00:47:41;;;;;;;12.00;7.60;;;;;;;13.17;77.28;99733.73;108961;1277;23932;-63
2022/06/07 00:50:30;;;;;;;14.20;7.10;;;;;;;13.16;77.21;99737.66;108859;1277;23602;-63
2022/06/07 00:52:59;;;;;;;15.70;7.60;;;;;;;13.12;77.21;99738.39;108574;1278;138998;-63
2022/06/07 00:55:26;;;;;;;10.00;7.20;;;;;;;13.08;77.17;99732.15;108827;1279;22448;-64
2022/06/07 00:57:59;;;;;;;15.20;7.50;;;;;;;13.07;77.30;99729.52;108485;1281;139834;-63
2022/06/07 01:00:32;;;;;;;13.10;6.90;;;;;;;13.05;77.48;99727.48;108789;1279;23253;-63
2022/06/07 01:02:59;;;;;;;13.60;7.90;;;;;;;13.02;77.55;99731.46;108647;1279;140413;-63
2022/06/07 01:05:26;;;;;;;16.20;6.80;;;;;;;13.00;77.67;99732.05;108765;1277;22465;-64
2022/06/07 01:10:46;;;;;;;12.50;7.70;;;;;;;12.97;77.46;99730.53;108715;1280;138483;-63
2022/06/07 01:13:21;;;;;;;11.20;6.90;;;;;;;12.95;77.40;99728.94;108772;1278;22456;-63
2022/06/07 01:15:49;;;;;;;13.80;7.40;;;;;;;12.89;77.50;99723.98;108834;1279;139208;-64
2022/06/07 01:18:16;;;;;;;12.40;7.40;;;;;;;12.89;77.82;99726.94;108858;1279;22444;-63
2022/06/07 01:20:44;;;;;;;16.90;7.70;;;;;;;12.88;77.82;99722.77;108888;1279;22474;-64
2022/06/07 01:23:10;;;;;;;11.30;6.70;;;;;;;12.87;77.83;99718.88;108754;1281;138194;-64
2022/06/07 01:25:37;;;;;;;14.40;7.30;;;;;;;12.85;77.83;99724.45;108699;1279;23411;-63
2022/06/07 01:28:04;;;;;;;13.10;7.10;;;;;;;12.82;77.82;99724.90;108700;1279;139416;-63
2022/06/07 01:30:31;;;;;;;12.30;7.60;;;;;;;12.81;77.78;99729.11;108604;1281;22435;-63
2022/06/07 01:32:58;;;;;;;19.60;8.50;;;;;;;12.80;77.89;99730.74;108654;1280;138605;-64
2022/06/07 01:35:25;;;;;;;;;;;;;;;12.78;77.89;99734.66;108750;1281;24172;-63
2022/06/07 01:37:52;;;;;;;10.20;7.30;;;;;;;12.74;77.74;99732.89;108626;1282;23621;-63
2022/06/07 01:43:04;;;;;;;14.40;8.20;;;;;;;12.69;78.25;99733.15;108992;1280;22589;-64
2022/06/07 01:45:31;;;;;;;18.60;8.30;;;;;;;12.67;78.03;99733.15;108641;1280;138453;-63
2022/06/07 01:47:58;;;;;;;14.10;7.40;;;;;;;12.67;78.18;99730.02;108861;1280;22501;-63
2022/06/07 01:50:25;;;;;;;14.70;8.60;;;;;;;12.65;78.04;99736.80;108947;1280;22425;-63
2022/06/07 01:52:51;;;;;;;17.50;8.30;;;;;;;12.63;78.04;99732.41;108829;1279;139205;-63
2022/06/07 01:55:23;;;;;;;14.90;9.00;;;;;;;12.61;78.14;99731.73;108922;1280;22295;-64
2022/06/07 01:58:00;;;;;;;13.80;7.60;;;;;;;12.59;78.28;99728.34;108659;1280;138501;-63
2022/06/07 02:00:27;;;;;;;12.80;7.60;;;;;;;12.57;78.22;99726.95;108857;1280;22436;-64
2022/06/07 02:02:54;;;;;;;17.40;8.90;;;;;;;12.55;78.30;99728.91;108781;1279;140925;-63
2022/06/07 02:05:21;;;;;;;16.00;8.40;;;;;;;12.55;78.49;99728.17;108932;1280;22282;-64
2022/06/07 02:07:52;;;;;;;17.40;8.50;;;;;;;12.54;78.77;99726.48;108944;1280;22603;-63
2022/06/07 02:10:24;;;;;;;18.90;10.00;;;;;;;12.52;78.84;99726.58;108757;1280;138368;-63
2022/06/07 02:12:51;;;;;;;18.30;9.60;;;;;;;12.50;78.92;99722.17;108979;1279;22602;-63
2022/06/07 02:15:18;;;;;;;;;;;;;;;12.51;78.86;99729.46;108924;1280;138407;-64
2022/06/07 02:17:51;;;;;;;16.50;9.40;;;;;;;12.51;79.01;99728.59;109024;1279;22604;-63
2022/06/07 02:20:25;;;;;;;14.30;7.90;;;;;;;12.51;79.01;99727.92;108933;1280;22465;-63
2022/06/07 02:22:52;;;;;;;18.50;9.00;;;;;;;12.50;79.21;99726.98;108634;1281;139505;-63
2022/06/07 02:25:19;;;;;;;17.20;8.30;;;;;;;12.51;79.08;99726.84;108979;1280;23228;-63
2022/06/07 02:27:45;;;;;;;22.20;9.60;;;;;;;12.50;79.27;99728.91;108809;1280;138552;-63
2022/06/07 02:30:12;;;;;;;20.20;9.20;;;;;;;12.51;79.68;99730.05;108829;1279;23097;-63
2022/06/07 02:32:39;;;;;;;20.80;8.70;;;;;;;12.52;79.85;99728.54;108744;1279;22560;-63
2022/06/07 02:35:07;;;;;;;16.30;9.20;;;;;;;12.57;79.95;99731.55;108436;1281;139213;-63
2022/06/07 02:37:37;;;;;;;15.10;8.60;;;;;;;12.61;80.20;99729.34;108771;1280;22477;-63
2022/06/07 02:40:05;;;;;;;19.70;8.80;;;;;;;12.64;80.04;99732.69;108505;1281;140181;-63
2022/06/07 02:42:32;;;;;;;16.70;9.30;;;;;;;12.67;80.08;99730.58;108418;1280;22516;-63
2022/06/07 02:44:59;;;;;;;;;;;;;;;12.69;80.36;99734.73;108688;1278;138549;-62
2022/06/07 02:47:25;;;;;;;15.00;8.70;;;;;;;12.72;80.28;99731.29;109003;1278;22406;-63
2022/06/07 02:49:57;;;;;;;17.60;9.00;;;;;;;12.74;80.71;99727.80;108927;1280;23178;-63
2022/06/07 02:52:24;;;;;;;21.70;8.90;;;;;;;12.80;80.68;99730.63;108920;1279;139137;-63
2022/06/07 02:55:10;;;;;;;17.40;8.90;;;;;;;12.85;81.07;99733.42;108993;1277;23333;-63
2022/06/07 02:57:37;;;;;;;15.90;9.50;;;;;;;12.88;81.21;99731.02;108742;1280;139539;-63
2022/06/07 03:00:08;;;;;;;28.50;10.60;;;;;;;12.95;81.00;99732.77;108749;1280;22560;-62
2022/06/07 03:02:34;;;;;;;16.30;9.70;;;;;;;13.02;81.30;99731.69;108999;1279;23204;-62
2022/06/07 03:05:02;;;;;;;15.50;9.40;;;;;;;13.08;81.30;99727.44;108905;1277;139248;-62
2022/06/07 03:07:28;;;;;;;18.30;10.30;;;;;;;13.15;81.50;99725.49;104715;1280;22777;-62
2022/06/07 03:09:56;;;;;;;17.50;9.30;;;;;;;13.22;81.55;99723.84;104594;1280;139990;-64
2022/06/07 03:12:23;;;;;;;19.80;10.20;;;;;;;13.28;81.51;99726.53;108935;1279;22598;-62
2022/06/07 03:14:50;;;;;;;15.70;9.00;;;;;;;13.35;81.49;99727.80;108990;1277;22687;-62
2022/06/07 03:17:17;;;;;;;17.80;10.40;;;;;;;13.43;81.55;99728.36;108989;1277;23221;-63
2022/06/07 03:19:44;;;;;;;18.00;10.30;;;;;;;13.51;81.58;99722.41;108938;1277;23673;-63
2022/06/07 03:22:14;;;;;;;19.90;9.70;;;;;;;13.60;81.78;99721.27;108613;1279;138420;-64
2022/06/07 03:24:41;;;;;;;17.90;10.80;;;;;;;13.70;82.07;99718.20;108892;1277;22480;-64
2022/06/07 03:27:11;;;;;;;17.60;9.90;;;;;;;13.80;82.07;99719.36;108787;1280;140430;-63
2022/06/07 03:29:38;;;;;;;16.90;9.70;;;;;;;13.92;82.11;99720.23;108840;1280;22493;-64
2022/06/07 03:32:07;;;;;;;19.70;10.50;;;;;;;14.03;82.49;99721.26;109000;1279;24084;-63
2022/06/07 03:34:34;;;;;;;16.90;9.80;;;;;;;14.15;82.51;99720.58;108541;1280;139246;-64
2022/06/07 03:37:02;;;;;;;22.80;9.80;;;;;;;14.26;82.63;99719.19;105640;1280;24945;-63
2022/06/07 03:39:29;;;;;;;17.10;10.70;;;;;;;14.40;82.78;99718.09;104585;1280;140791;-62
2022/06/07 03:41:58;;;;;;;15.40;9.50;;;;;;;14.53;82.93;99717.55;104650;1280;22593;-62
2022/06/07 03:47:17;;;;;;;23.40;11.30;;;;;;;14.80;83.10;99717.30;101160;1317;564341;-63
2022/06/07 03:49:46;;;;;;;15.90;9.90;;;;;;;14.90;82.90;99713.02;103250;1294;22757;-64
2022/06/07 03:52:14;;;;;;;20.80;11.00;;;;;;;15.01;82.58;99718.84;103057;1294;137842;-63
2022/06/07 03:54:42;;;;;;;16.90;9.50;;;;;;;15.12;82.27;99715.39;107507;1292;22480;-64
2022/06/07 03:57:10;;;;;;;21.10;10.40;;;;;;;15.23;81.88;99714.27;107238;1291;137859;-64
2022/06/07 03:59:38;;;;;;;22.20;10.40;;;;;;;15.34;81.52;99712.98;107335;1291;22479;-64
2022/06/07 04:02:05;;;;;;;17.20;9.40;;;;;;;15.44;81.09;99710.39;107465;1290;224955;-64
2022/06/07 04:04:34;;;;;;;17.40;11.10;;;;;;;15.57;80.48;99708.96;107549;1289;139153;-63
2022/06/07 04:09:51;;;;;;;20.30;7.30;;;;;;;15.93;79.03;99716.41;107569;1289;137879;-64
2022/06/07 04:12:22;;;;;;;12.00;6.50;;;;;;;16.10;78.10;99713.40;107601;1289;23404;-63
2022/06/07 04:14:50;;;;;;;8.00;5.60;;;;;;;16.27;77.30;99711.20;107774;1289;22705;-63
2022/06/07 04:17:18;;;;;;;9.60;5.50;;;;;;;16.42;76.33;99710.33;103777;1290;139113;-61
2022/06/07 04:19:49;;;;;;;9.70;5.10;;;;;;;16.58;75.28;99712.73;103457;1290;22645;-62
2022/06/07 04:22:17;;;;;;;8.20;3.60;;;;;;;16.73;74.06;99707.56;107764;1289;137986;-62
2022/06/07 04:24:51;;;;;;;6.20;2.80;;;;;;;16.94;70.58;99710.45;107629;1287;22487;-62
2022/06/07 04:27:18;;;;;;;3.00;2.40;;;;;;;17.16;67.58;99707.50;107785;1289;137085;-62
2022/06/07 04:29:48;;;;;;;5.80;2.50;;;;;;;17.43;64.88;99708.87;107652;1289;22487;-63
2022/06/07 04:32:16;;;;;;;4.50;2.40;;;;;;;17.67;64.03;99708.52;107789;1288;23512;-62
2022/06/07 04:34:44;;;;;;;6.20;3.00;;;;;;;17.85;63.25;99703.92;107643;1289;137135;-63
2022/06/07 04:37:12;;;;;;;4.20;2.20;;;;;;;17.99;62.53;99701.48;107746;1289;22528;-62
2022/06/07 04:39:39;;;;;;;3.90;2.80;;;;;;;18.12;62.39;99699.16;107426;1289;137260;-62
2022/06/07 04:42:09;;;;;;;5.20;3.00;;;;;;;18.22;61.84;99698.68;107627;1289;23502;-62
2022/06/07 04:45:03;;;;;;;25.90;4.40;;;;;;;18.33;60.78;99699.86;107487;1291;137242;-62
2022/06/07 04:47:50;;;;;;;12.30;3.30;;;;;;;18.43;60.62;99698.41;103434;1291;22572;-61
2022/06/07 04:50:18;;;;;;;4.40;3.20;;;;;;;18.53;59.17;99698.16;107637;1291;22494;-62
2022/06/07 04:52:46;;;;;;;9.30;3.60;;;;;;;18.65;59.36;99700.09;107389;1291;138249;-61
2022/06/07 04:55:13;;;;;;;7.50;4.10;;;;;;;18.76;59.49;99700.92;107262;1291;22468;-61
2022/06/07 04:57:40;;;;;;;4.70;3.40;;;;;;;18.85;58.79;99704.61;107305;1291;138453;-61
2022/06/07 05:00:13;;;;;;;8.50;2.80;;;;;;;18.93;57.86;99703.59;107477;1291;22476;-61
2022/06/07 05:02:42;;;;;;;3.60;2.50;;;;;;;19.03;57.76;99706.20;107416;1290;22543;-61
2022/06/07 05:05:10;;;;;;;5.50;2.20;;;;;;;19.14;56.67;99707.11;107722;1287;136862;-61
2022/06/07 05:07:37;;;;;;;3.90;2.20;;;;;;;19.32;55.73;99709.42;107854;1288;23227;-61
2022/06/07 05:10:09;;;;;;;4.00;2.20;;;;;;;19.52;54.81;99713.07;107896;1286;137232;-62
2022/06/07 05:12:40;;;;;;;7.90;2.90;;;;;;;19.77;53.67;99715.14;107700;1287;22778;-62
2022/06/07 05:15:09;;;;;;;3.40;2.20;;;;;;;20.06;53.11;99712.34;107704;1288;138857;-55
2022/06/07 05:17:47;;;;;;;6.60;2.30;;;;;;;20.41;51.85;99716.30;108048;1287;23213;-62
2022/06/07 05:20:14;;;;;;;3.20;1.90;;;;;;;20.78;50.76;99717.20;107979;1287;23441;-62
2022/06/07 05:22:41;;;;;;;4.70;2.20;;;;;;;21.16;50.01;99719.08;107959;1287;137304;-62
2022/06/07 05:25:10;;;;;;;5.50;2.30;;;;;;;21.57;49.00;99715.02;107806;1288;22445;-62
2022/06/07 05:27:41;;;;;;;3.40;2.10;;;;;;;21.97;47.12;99716.25;107812;1287;137343;-63
2022/06/07 05:30:12;;;;;;;6.70;2.10;;;;;;;22.39;46.76;99711.66;107786;1287;22447;-63
2022/06/07 05:32:43;;;;;;;3.00;2.20;;;;;;;22.80;45.48;99711.24;108046;1288;23526;-63
2022/06/07 05:35:13;;;;;;;3.20;1.80;;;;;;;23.16;44.31;99710.40;107723;1288;136996;-62
2022/06/07 05:37:44;;;;;;;3.10;2.20;;;;;;;23.48;43.70;99711.66;107803;1289;22409;-62
2022/06/07 05:40:16;;;;;;;1.80;1.60;;;;;;;23.77;43.43;99711.88;107566;1288;138369;-63
2022/06/07 05:42:43;;;;;;;2.20;1.90;;;;;;;24.03;42.94;99712.79;107978;1287;22251;-64
2022/06/07 05:45:12;;;;;;;3.70;2.30;;;;;;;24.32;42.95;99708.41;107647;1287;138259;-63
2022/06/07 05:47:41;;;;;;;9.60;3.00;;;;;;;24.57;42.88;99705.33;103662;1288;22614;-63
2022/06/07 05:50:09;;;;;;;2.20;2.00;;;;;;;24.82;42.21;99705.09;103545;1289;23294;-62
2022/06/07 05:52:40;;;;;;;4.00;1.90;;;;;;;25.02;41.02;99701.47;103518;1288;138142;-63
2022/06/07 05:55:09;;;;;;;4.90;2.30;;;;;;;25.13;40.53;99700.60;107943;1287;22273;-62
2022/06/07 05:57:36;;;;;;;2.60;1.90;;;;;;;25.14;40.40;99698.41;107983;1287;137613;-64
2022/06/07 06:00:05;;;;;;;4.90;2.70;;;;;;;25.16;41.00;99698.08;107783;1288;23150;-63
2022/06/07 06:02:38;;;;;;;4.10;2.50;;;;;;;25.15;41.20;99701.39;107923;1288;23055;-63
2022/06/07 06:05:10;;;;;;;2.40;2.20;;;;;;;25.10;41.54;99703.08;107992;1287;136936;-63
2022/06/07 06:10:19;;;;;;;3.50;2.40;;;;;;;25.06;41.70;99699.52;107906;1287;22473;-62
2022/06/07 06:10:24;;;;;;;;;;;;;;;24.98;41.74;99702.61;107683;1287;137145;-62
2022/06/07 06:12:57;;;;;;;4.00;2.40;;;;;;;24.92;41.47;99702.91;107933;1286;22573;-62
2022/06/07 06:15:24;;;;;;;3.30;2.50;;;;;;;24.84;41.45;99702.94;107833;1287;137284;-62
2022/06/07 06:17:51;;;;;;;2.50;1.90;;;;;;;24.74;41.67;99699.02;107955;1287;23231;-62
2022/06/07 06:20:27;;;;;;;3.40;2.30;;;;;;;24.66;41.76;99699.34;107934;1287;22510;-62
2022/06/07 06:22:55;;;;;;;2.50;2.00;;;;;;;24.58;41.86;99696.42;107887;1287;137847;-62
2022/06/07 06:25:22;;;;;;;10.40;2.40;;;;;;;24.50;41.31;99698.61;107749;1287;23217;-63
2022/06/07 06:27:49;;;;;;;2.90;2.00;;;;;;;24.43;41.42;99697.89;107760;1287;139511;-63
2022/06/07 06:30:16;;;;;;;6.10;1.60;;;;;;;24.34;41.39;99696.49;108026;1287;22472;-63
2022/06/07 06:32:48;;;;;;;2.90;2.10;;;;;;;24.23;41.26;99697.13;107965;1288;22433;-63
2022/06/07 06:35:18;;;;;;;2.30;1.70;;;;;;;24.12;40.13;99692.81;107868;1287;23479;-63
2022/06/07 06:37:45;;;;;;;7.40;2.80;;;;;;;24.05;40.13;99693.52;108101;1287;22431;-63
2022/06/07 06:40:12;;;;;;;7.90;3.30;;;;;;;23.98;40.62;99690.23;107619;1287;137319;-63
2022/06/07 06:42:50;;;;;;;2.50;1.60;;;;;;;23.92;40.43;99687.20;107799;1287;22450;-63
2022/06/07 06:45:49;;;;;;;2.70;1.90;;;;;;;23.85;40.65;99685.33;107695;1288;139044;-62
2022/06/07 06:48:18;;;;;;;7.70;2.30;;;;;;;23.80;40.98;99683.87;107826;1288;22470;-62
2022/06/07 06:50:47;;;;;;;6.20;2.60;;;;;;;23.75;41.53;99678.45;107818;1288;22446;-62
2022/06/07 06:53:14;;;;;;;6.60;2.00;;;;;;;23.72;41.56;99685.09;107634;1288;137431;-62
2022/06/07 06:55:44;;;;;;;1.80;1.60;;;;;;;23.66;41.47;99682.30;108692;1281;22459;-62
2022/06/07 06:58:12;;;;;;;1.50;1.40;;;;;;;23.61;41.07;99681.82;108625;1281;137394;-62
2022/06/07 07:00:39;;;;;;;2.60;1.50;;;;;;;23.59;40.55;99671.50;108756;1281;22576;-62
2022/06/07 07:03:08;;;;;;;1.40;1.30;;;;;;;23.60;39.94;99669.95;108583;1280;137309;-62
2022/06/07 07:05:40;;;;;;;5.30;2.30;;;;;;;23.64;40.13;99670.58;108564;1281;22997;-62
2022/06/07 07:08:07;;;;;;;3.40;1.70;;;;;;;23.69;40.26;99673.42;108759;1281;22412;-63
2022/06/07 07:10:34;;;;;;;1.80;1.60;;;;;;;23.73;39.92;99677.71;108572;1281;137127;-63
2022/06/07 07:13:02;;;;;;;1.80;1.70;;;;;;;23.72;39.30;99676.02;108420;1284;23277;-63
2022/06/07 07:15:33;;;;;;;1.60;1.50;;;;;;;23.67;39.92;99678.70;108556;1281;137749;-63
2022/06/07 07:18:04;;;;;;;2.50;2.10;;;;;;;23.63;39.85;99677.61;108675;1281;23581;-61
2022/06/07 07:20:39;;;;;;;2.30;1.70;;;;;;;23.54;39.17;99677.27;108683;1281;22438;-62
2022/06/07 07:23:07;;;;;;;3.30;1.90;;;;;;;23.41;38.97;99675.77;108660;1281;137177;-62
2022/06/07 07:25:35;;;;;;;1.60;1.50;;;;;;;23.30;39.07;99673.45;108717;1281;23145;-62
2022/06/07 07:28:02;;;;;;;2.30;2.10;;;;;;;23.21;39.30;99682.60;108514;1281;137915;-62
2022/06/07 07:30:30;;;;;;;2.30;1.80;;;;;;;23.12;39.63;99681.25;108545;1281;22491;-62
2022/06/07 07:32:57;;;;;;;5.70;1.90;;;;;;;23.03;39.88;99682.16;108592;1279;137353;-59
2022/06/07 07:35:24;;;;;;;8.90;2.70;;;;;;;22.95;40.12;99679.41;107752;1281;24177;-60
2022/06/07 07:37:57;;;;;;;7.50;1.70;;;;;;;22.94;40.99;99680.14;104637;1281;24342;-64
2022/06/07 07:40:24;;;;;;;2.00;1.80;;;;;;;22.96;40.82;99683.16;104361;1281;137702;-61
2022/06/07 07:42:51;;;;;;;2.80;1.90;;;;;;;22.98;40.54;99681.17;104684;1280;24402;-62
2022/06/07 07:45:23;;;;;;;6.20;1.80;;;;;;;22.99;41.08;99679.41;108687;1279;138338;-62
2022/06/07 07:47:52;;;;;;;4.70;2.10;;;;;;;23.03;41.12;99681.31;108555;1281;23503;-63
2022/06/07 07:50:19;;;;;;;6.70;1.60;;;;;;;23.05;40.39;99682.88;108530;1281;22523;-63
2022/06/07 07:52:48;;;;;;;2.40;1.60;;;;;;;23.04;40.08;99679.45;108602;1281;138345;-64
2022/06/07 07:55:15;;;;;;;15.00;3.10;;;;;;;22.98;39.79;99674.84;108628;1279;22587;-62
2022/06/07 07:57:43;;;;;;;5.20;2.00;;;;;;;22.93;39.81;99676.62;104241;1281;138644;-59
2022/06/07 08:00:13;;;;;;;3.50;1.60;;;;;;;22.91;40.68;99677.17;104428;1279;24445;-61
2022/06/07 08:02:40;;;;;;;6.20;1.80;;;;;;;22.93;41.44;99681.55;104544;1281;22560;-60
2022/06/07 08:05:17;;;;;;;2.50;1.70;;;;;;;22.95;41.42;99679.65;104294;1281;139299;-61
2022/06/07 08:07:44;;;;;;;1.90;1.60;;;;;;;22.96;40.67;99677.59;104554;1281;22561;-60
2022/06/07 08:10:24;;;;;;;5.50;1.90;;;;;;;22.97;41.46;99674.38;104337;1282;137563;-61
2022/06/07 08:12:58;;;;;;;1.60;1.40;;;;;;;23.02;40.94;99677.08;108688;1281;22492;-61
2022/06/07 08:15:26;;;;;;;2.50;1.70;;;;;;;23.07;40.75;99674.27;108667;1281;137671;-61
2022/06/07 08:17:53;;;;;;;3.50;1.80;;;;;;;23.10;40.53;99674.65;108761;1281;23438;-61
2022/06/07 08:20:20;;;;;;;3.10;1.90;;;;;;;23.11;40.54;99676.55;108751;1281;22484;-61
2022/06/07 08:22:49;;;;;;;1.70;1.60;;;;;;;23.14;41.88;99674.73;108710;1281;137371;-61
2022/06/07 08:25:19;;;;;;;2.20;1.80;;;;;;;23.16;41.18;99671.98;108578;1281;22441;-61
2022/06/07 08:27:46;;;;;;;2.50;1.70;;;;;;;23.19;40.60;99669.31;108670;1281;137561;-61
2022/06/07 08:30:13;;;;;;;5.50;1.70;;;;;;;23.21;40.52;99668.19;108580;1281;22465;-61
2022/06/07 08:32:42;;;;;;;1.80;1.70;;;;;;;23.22;41.08;99663.09;108773;1281;22462;-61
2022/06/07 08:37:57;;;;;;;2.80;1.50;;;;;;;23.33;41.75;99667.23;108779;1281;22466;-61
2022/06/07 08:40:27;;;;;;;2.30;2.00;;;;;;;23.40;41.63;99664.68;108525;1281;138638;-61
2022/06/07 08:42:55;;;;;;;12.00;2.50;;;;;;;23.45;41.50;99657.61;108781;1281;22615;-62
2022/06/07 08:45:52;;;;;;;3.00;1.80;;;;;;;23.50;40.92;99661.66;108427;1281;138501;-62
2022/06/07 08:48:27;;;;;;;3.00;2.10;;;;;;;23.57;40.60;99662.27;108177;1285;22527;-61
2022/06/07 08:50:57;;;;;;;8.20;2.30;;;;;;;23.59;39.88;99666.09;108051;1286;138696;-60
2022/06/07 08:53:36;;;;;;;11.80;3.00;;;;;;;23.60;40.26;99662.74;108155;1287;23406;-61
2022/06/07 08:56:05;;;;;;;5.80;1.90;;;;;;;23.64;40.33;99664.69;108026;1287;23324;-63
2022/06/07 08:58:39;;;;;;;8.90;4.50;;;;;;;23.65;40.35;99662.52;107890;1287;137538;-61
2022/06/07 09:01:22;;;;;;;3.80;2.10;;;;;;;23.67;40.92;99663.50;108196;1285;22565;-61
2022/06/07 09:03:51;;;;;;;38.40;6.40;;;;;;;23.65;40.63;99658.75;108126;1285;138851;-61
2022/06/07 09:06:25;;;;;;;6.30;2.20;;;;;;;23.61;40.76;99658.06;108404;1285;22674;-61
2022/06/07 09:08:54;;;;;;;8.00;3.20;;;;;;;23.57;40.40;99658.31;108343;1285;23302;-61
2022/06/07 09:14:22;;;;;;;4.80;2.10;;;;;;;23.51;40.09;99654.69;108354;1285;22617;-61
2022/06/07 09:16:49;;;;;;;3.80;1.80;;;;;;;23.47;39.46;99655.21;108266;1284;137637;-61
2022/06/07 09:19:21;;;;;;;4.80;2.20;;;;;;;23.42;39.10;99652.23;108419;1284;22639;-61
2022/06/07 09:21:49;;;;;;;24.20;3.70;;;;;;;23.34;39.33;99651.92;108274;1284;138690;-61
2022/06/07 09:24:29;;;;;;;3.10;2.20;;;;;;;23.27;40.00;99648.95;108356;1279;22610;-61
2022/06/07 09:27:26;;;;;;;6.20;1.90;;;;;;;23.24;39.67;99646.79;108691;1280;137460;-59
2022/06/07 09:30:05;;;;;;;40.80;5.30;;;;;;;23.22;39.57;99644.91;104791;1286;23190;-60
2022/06/07 09:32:35;;;;;;;14.20;2.60;;;;;;;23.22;39.57;99643.14;104089;1285;22556;-61
2022/06/07 09:35:08;;;;;;;5.10;2.20;;;;;;;23.26;40.06;99640.88;108036;1287;138014;-61
2022/06/07 09:38:02;;;;;;;2.40;1.50;;;;;;;23.30;40.35;99635.82;108186;1287;22583;-61
2022/06/07 09:40:34;;;;;;;5.00;1.80;;;;;;;23.41;40.03;99634.60;108045;1286;139446;-61
2022/06/07 09:43:08;;;;;;;18.80;4.20;;;;;;;23.49;40.05;99634.79;108062;1287;22493;-59
2022/06/07 09:45:52;;;;;;;2.80;1.60;;;;;;;23.61;41.23;99637.31;107917;1287;138486;-60
2022/06/07 09:48:25;;;;;;;3.20;1.90;;;;;;;23.73;39.53;99632.02;108127;1287;22311;-60
2022/06/07 09:51:06;;;;;;;3.60;1.90;;;;;;;23.81;39.21;99633.84;108039;1287;22476;-61
2022/06/07 09:53:35;;;;;;;1.70;1.60;;;;;;;23.86;39.32;99625.73;108132;1287;22471;-61
2022/06/07 09:56:24;;;;;;;3.20;1.80;;;;;;;23.91;39.49;99621.79;107991;1287;23261;-61
2022/06/07 09:58:57;;;;;;;1.90;1.60;;;;;;;23.99;38.76;99624.11;108001;1287;137772;-60
2022/06/07 10:01:36;;;;;;;2.40;1.60;;;;;;;24.03;38.45;99619.09;107863;1287;22475;-60
2022/06/07 10:04:12;;;;;;;3.50;1.70;;;;;;;24.06;39.18;99619.75;107743;1287;138158;-59
2022/06/07 10:06:46;;;;;;;4.00;1.70;;;;;;;24.10;39.73;99618.91;108169;1281;22257;-59
2022/06/07 10:09:28;;;;;;;1.90;1.70;;;;;;;24.12;38.30;99618.26;108591;1281;137875;-59
2022/06/07 10:12:15;;;;;;;4.80;1.70;;;;;;;24.10;37.92;99614.62;108655;1281;23103;-59
2022/06/07 10:14:50;;;;;;;3.90;1.70;;;;;;;24.07;37.57;99603.65;108737;1281;22484;-59
2022/06/07 10:17:20;;;;;;;3.80;2.60;;;;;;;24.08;37.51;99605.20;108443;1281;137310;-59
2022/06/07 10:19:55;;;;;;;3.60;2.00;;;;;;;24.11;37.31;99605.66;108603;1281;22914;-59
2022/06/07 10:22:45;;;;;;;3.60;2.00;;;;;;;24.11;36.97;99610.67;108596;1281;137630;-59
2022/06/07 10:25:16;;;;;;;2.80;2.20;;;;;;;24.11;38.58;99602.15;108711;1281;22478;-59
2022/06/07 10:28:02;;;;;;;2.30;1.70;;;;;;;24.14;39.53;99603.08;108596;1281;137714;-59
2022/06/07 10:30:44;;;;;;;5.00;2.60;;;;;;;24.21;40.71;99599.36;108683;1281;22504;-61
2022/06/07 10:33:38;;;;;;;3.90;1.80;;;;;;;24.30;40.84;99592.42;108429;1281;137882;-58
2022/06/07 10:36:17;;;;;;;2.70;1.90;;;;;;;24.38;40.88;99591.02;108714;1281;23201;-58
2022/06/07 10:39:05;;;;;;;3.30;1.90;;;;;;;24.46;40.65;99591.19;108523;1281;23194;-60
2022/06/07 10:42:00;;;;;;;27.80;3.30;;;;;;;24.54;39.71;99595.13;108785;1279;22595;-58
2022/06/07 10:44:30;;;;;;;2.10;1.90;;;;;;;24.62;39.19;99587.50;108664;1281;23159;-58
2022/06/07 10:46:57;;;;;;;7.60;1.80;;;;;;;24.66;39.23;99584.92;108679;1281;137233;-59
2022/06/07 10:49:27;;;;;;;11.00;2.50;;;;;;;24.69;38.88;99582.13;108452;1281;22447;-59
2022/06/07 10:54:58;;;;;;;5.50;2.00;;;;;;;24.76;39.21;99581.80;108576;1281;23227;-59
2022/06/07 10:57:33;;;;;;;3.50;1.60;;;;;;;24.81;38.44;99580.45;108639;1279;137756;-59
2022/06/07 11:00:02;;;;;;;2.70;2.00;;;;;;;24.86;38.41;99576.23;108596;1279;22484;-59
2022/06/07 11:02:47;;;;;;;3.00;1.70;;;;;;;24.90;38.30;99574.52;108703;1281;22550;-59
2022/06/07 11:11:20;;;;;;;5.30;2.70;;;;;;;25.07;37.36;99565.95;108733;1279;137507;-59
2022/06/07 11:13:52;;;;;;;4.80;1.80;;;;;;;25.08;37.65;99562.27;108967;1281;22273;-60
2022/06/07 11:16:44;;;;;;;4.50;2.00;;;;;;;25.10;37.98;99558.83;108636;1281;137606;-59
2022/06/07 11:19:11;;;;;;;9.70;1.90;;;;;;;25.14;38.94;99557.01;108753;1281;22482;-59
2022/06/07 11:21:40;;;;;;;6.60;2.10;;;;;;;25.17;38.45;99548.34;108776;1280;138375;-58
2022/06/07 11:24:24;;;;;;;3.60;2.40;;;;;;;25.22;38.30;99550.73;108768;1281;22478;-58
2022/06/07 11:26:52;;;;;;;6.90;2.10;;;;;;;25.28;36.20;99549.91;108783;1281;22471;-58
2022/06/07 11:29:24;;;;;;;4.70;1.90;;;;;;;25.27;36.93;99547.83;108764;1281;137202;-59
2022/06/07 11:31:51;;;;;;;3.50;1.90;;;;;;;25.28;36.70;99546.48;108575;1281;22453;-64
2022/06/07 11:34:29;;;;;;;9.50;2.20;;;;;;;25.30;36.39;99546.14;108632;1281;137676;-62
2022/06/07 11:36:56;;;;;;;4.90;1.80;;;;;;;25.29;36.23;99539.77;108761;1281;23553;-62
2022/06/07 11:39:39;;;;;;;5.00;1.80;;;;;;;25.28;37.00;99540.59;108664;1281;137750;-60
2022/06/07 11:42:06;;;;;;;3.00;1.90;;;;;;;25.27;35.55;99534.99;108775;1281;22460;-60
2022/06/07 11:44:38;;;;;;;3.90;1.70;;;;;;;25.26;36.14;99533.27;108633;1281;22416;-59
2022/06/07 11:47:07;;;;;;;4.00;1.60;;;;;;;25.27;36.53;99530.84;108651;1281;137763;-60
2022/06/07 11:49:46;;;;;;;5.60;2.80;;;;;;;25.29;37.12;99528.85;108827;1281;22487;-59
2022/06/07 11:52:13;;;;;;;29.40;5.50;;;;;;;25.33;37.27;99528.94;108662;1281;138507;-60
2022/06/07 11:54:48;;;;;;;2.20;1.70;;;;;;;25.34;36.40;99527.86;108642;1281;23672;-60
2022/06/07 11:57:40;;;;;;;4.50;2.10;;;;;;;25.34;36.10;99523.34;108697;1281;138749;-59
2022/06/07 12:00:15;;;;;;;6.30;1.90;;;;;;;25.35;37.08;99518.40;108703;1281;22315;-59
2022/06/07 12:02:42;;;;;;;6.40;2.60;;;;;;;25.36;37.47;99517.00;108733;1281;22539;-59